SASA/SLA METAR and TAF weather

Enter ICAO airport designator
Station Type Date Time Source
SASA METAR 2020/07/15 06:00 UTC NOAA

SASA 150600Z 00000KT 9999 SCT020 OVC100 08/04 Q1020


Station Type Date Time Source
SASA Decoded METAR 2020/07/15 06:00 UTC NOAA

Salta Aerodrome, Argentina (SASA) 24-51S 065-29W 1221M
Jul 15, 2020 - 02:00 AM EDT / 2020.07.15 0600 UTC
Wind: Calm:0
Visibility: greater than 7 mile(s):0
Sky conditions: overcast
Temperature: 46 F (8 C)
Dew Point: 39 F (4 C)
Relative Humidity: 75%
Pressure (altimeter): 30.12 in. Hg (1020 hPa)
ob: SASA 150600Z 00000KT 9999 SCT020 OVC100 08/04 Q1020
cycle: 6

Station Type Date Time Source
SASA TAF 2020/07/15 06:21 UTC NOAA

TAF SASA 150500Z 1506/1606 VRB03KT 9999 BKN015 OVC100 TX17/1518Z TN05/1510Z
BECMG 1507/1509 6000 BKN008 OVC020
BECMG 1513/1515 05010KT 9999 NSW BKN020 BKN100
BECMG 1516/1518 CAVOK
BECMG 1600/1602 VRB03KT

Example: see airport list